Bastille Street — A8YZ6 — position and weather

sailwx.info

Track history (hours):
 
Tides and Currents Weather Stations Pressure Air Temp Water Temp Dewpoint Dewpoint Depression Visibility Wind Speed Wind Dir Waves Ship Positions

Bastille Street

Last reported at 2017-Jan-09 19:33 UTC. Time now 2017-Jan-16 11:02 UTC.
Position S 22°42' W 041°19'.

Length 180 m; draft 8 m.

MMSI: 636015161.

Date/timePositionNaut miles runAvg speedWind from/ knotsBaromVisibWave heightAir tempDewpointWater temp
2017-Jan-09 19:33S 22°42' W 041°19'2110.5
2017-Jan-09 17:34S 22°56' W 041°36'1110.8
2017-Jan-09 16:33S 23°03' W 041°45'1111.2
2017-Jan-09 15:34S 23°11' W 041°53'1111.2
2017-Jan-09 14:33S 23°18' W 042°03'1211.6
2017-Jan-09 13:33S 23°25' W 042°13'1211.4
2017-Jan-09 12:27S 23°29' W 042°25'1111.9
2017-Jan-09 11:33S 23°32' W 042°37'19711.4
2017-Jan-08 18:13S 24°07' W 046°09'811.9
2017-Jan-08 17:33S 24°04' W 046°17'6 5.6
2017-Jan-08 16:33S 23°59' W 046°17'  
2016-Dec-31 16:22S 23°55' W 046°20'4 4.8
2016-Dec-31 15:33S 23°59' W 046°17'6 5.9
2016-Dec-31 14:33S 24°03' W 046°21'3 3.1
2016-Dec-31 13:33S 24°06' W 046°22'0 0.1
2016-Dec-31 12:30S 24°06' W 046°22'0 0.0
2016-Dec-31 11:30S 24°06' W 046°22'0 0.1
2016-Dec-31 10:30S 24°06' W 046°22'0 0.1
2016-Dec-31 09:33S 24°06' W 046°22'0 0.0
2016-Dec-31 08:27S 24°06' W 046°22'0 0.0
2016-Dec-31 07:30S 24°06' W 046°22'0 0.0
2016-Dec-31 06:30S 24°06' W 046°22'0 0.0
2016-Dec-31 05:30S 24°06' W 046°22'0 0.0
2016-Dec-31 04:33S 24°06' W 046°22'0 0.0
2016-Dec-31 03:33S 24°06' W 046°22'0 0.0
2016-Dec-31 02:24S 24°06' W 046°22'0 0.0
2016-Dec-31 01:33S 24°06' W 046°22'0 0.0
2016-Dec-31 00:30S 24°06' W 046°22'0 0.0
2016-Dec-30 23:33S 24°06' W 046°22'0 0.0
2016-Dec-30 22:30S 24°06' W 046°22'0 0.0
2016-Dec-30 21:12S 24°06' W 046°22'0 0.0
2016-Dec-30 20:33S 24°06' W 046°22'  
Track history (hours):
 
Tides and Currents Weather Stations Pressure Air Temp Water Temp Dewpoint Dewpoint Depression Visibility Wind Speed Wind Dir Waves Ship Positions

Bastille Street

Last reported at 2017-Jan-09 19:33 UTC. Time now 2017-Jan-16 11:02 UTC.
Position S 22°42' W 041°19'.

Length 180 m; draft 8 m.

MMSI: 636015161.

Date/timePositionNaut miles runAvg speedWind from/ knotsBaromVisibWave heightAir tempDewpointWater temp
2017-Jan-09 19:33S 22°42' W 041°19'2110.5
2017-Jan-09 17:34S 22°56' W 041°36'1110.8
2017-Jan-09 16:33S 23°03' W 041°45'1111.2
2017-Jan-09 15:34S 23°11' W 041°53'1111.2
2017-Jan-09 14:33S 23°18' W 042°03'1211.6
2017-Jan-09 13:33S 23°25' W 042°13'1211.4
2017-Jan-09 12:27S 23°29' W 042°25'1111.9
2017-Jan-09 11:33S 23°32' W 042°37'19711.4
2017-Jan-08 18:13S 24°07' W 046°09'811.9
2017-Jan-08 17:33S 24°04' W 046°17'6 5.6
2017-Jan-08 16:33S 23°59' W 046°17'  
2016-Dec-31 16:22S 23°55' W 046°20'4 4.8
2016-Dec-31 15:33S 23°59' W 046°17'6 5.9
2016-Dec-31 14:33S 24°03' W 046°21'3 3.1
2016-Dec-31 13:33S 24°06' W 046°22'0 0.1
2016-Dec-31 12:30S 24°06' W 046°22'0 0.0
2016-Dec-31 11:30S 24°06' W 046°22'0 0.1
2016-Dec-31 10:30S 24°06' W 046°22'0 0.1
2016-Dec-31 09:33S 24°06' W 046°22'0 0.0
2016-Dec-31 08:27S 24°06' W 046°22'0 0.0
2016-Dec-31 07:30S 24°06' W 046°22'0 0.0
2016-Dec-31 06:30S 24°06' W 046°22'0 0.0
2016-Dec-31 05:30S 24°06' W 046°22'0 0.0
2016-Dec-31 04:33S 24°06' W 046°22'0 0.0
2016-Dec-31 03:33S 24°06' W 046°22'0 0.0
2016-Dec-31 02:24S 24°06' W 046°22'0 0.0
2016-Dec-31 01:33S 24°06' W 046°22'0 0.0
2016-Dec-31 00:30S 24°06' W 046°22'0 0.0
2016-Dec-30 23:33S 24°06' W 046°22'0 0.0
2016-Dec-30 22:30S 24°06' W 046°22'0 0.0
2016-Dec-30 21:12S 24°06' W 046°22'0 0.0
2016-Dec-30 20:33S 24°06' W 046°22'  

Dump ship's entire track history